Time;durP1;ratioP1;P1;durP2;ratioP2;P2;SDS_P1;SDS_P2;PMS_P1;PMS_P2;Temp;Humidity;BMP_temperature;BMP_pressure;BME280_temperature;BME280_humidity;BME280_pressure;Samples;Min_cycle;Max_cycle;Signal;HPM_P1;HPM_P2
2023/04/29 00:00:19;;;;;;;14.97;13.73;;;;;;;12.26;100.00;99770.94;5027556;28;20739;-76
2023/04/29 00:02:47;;;;;;;15.33;14.03;;;;;;;12.12;100.00;99755.72;5028204;28;20217;-77
2023/04/29 00:05:14;;;;;;;16.57;15.03;;;;;;;12.00;100.00;99738.72;5028572;28;20686;-76
2023/04/29 00:07:40;;;;;;;17.07;15.37;;;;;;;12.01;100.00;99729.09;5031968;28;20304;-76
2023/04/29 00:10:08;;;;;;;17.53;15.83;;;;;;;11.94;100.00;99730.25;5031524;28;20658;-76
2023/04/29 00:12:34;;;;;;;18.27;15.87;;;;;;;11.87;100.00;99733.06;5031905;28;20264;-77
2023/04/29 00:15:01;;;;;;;17.60;15.70;;;;;;;11.82;100.00;99737.59;5031707;28;20242;-76
2023/04/29 00:17:28;;;;;;;18.90;17.00;;;;;;;11.81;100.00;99738.47;5031587;28;20312;-77
2023/04/29 00:19:55;;;;;;;19.17;16.93;;;;;;;11.78;100.00;99735.13;5031274;28;20691;-77
2023/04/29 00:22:22;;;;;;;18.37;16.57;;;;;;;11.74;100.00;99742.22;5032104;28;20214;-77
2023/04/29 00:24:49;;;;;;;17.53;15.90;;;;;;;11.72;100.00;99752.72;5031608;28;20884;-77
2023/04/29 00:27:16;;;;;;;18.87;16.87;;;;;;;11.70;100.00;99756.31;5031534;28;20214;-76
2023/04/29 00:29:42;;;;;;;18.53;16.70;;;;;;;11.72;100.00;99759.72;5031776;28;20225;-76
2023/04/29 00:32:09;;;;;;;18.83;17.07;;;;;;;11.73;100.00;99767.53;5041040;23;20234;-85
2023/04/29 00:34:35;;;;;;;19.27;17.37;;;;;;;11.80;100.00;99775.16;5013581;28;20755;-86
2023/04/29 00:37:03;;;;;;;18.87;16.87;;;;;;;11.83;100.00;99778.53;5015721;28;20720;-84
2023/04/29 00:39:29;;;;;;;20.17;17.80;;;;;;;11.80;100.00;99789.09;5015821;28;20776;-84
2023/04/29 00:41:55;;;;;;;18.77;16.97;;;;;;;11.79;100.00;99795.19;5015358;28;20227;-85
2023/04/29 00:44:22;;;;;;;19.43;17.47;;;;;;;11.78;100.00;99798.75;5015240;28;20207;-84
2023/04/29 00:46:48;;;;;;;18.90;16.83;;;;;;;11.84;100.00;99797.69;5015618;28;20213;-83
2023/04/29 00:49:15;;;;;;;20.10;18.00;;;;;;;11.83;100.00;99807.28;5015622;28;20210;-83
2023/04/29 00:51:41;;;;;;;19.77;17.77;;;;;;;11.87;100.00;99814.13;5015536;28;20251;-83
2023/04/29 00:54:10;;;;;;;18.20;16.53;;;;;;;11.77;100.00;99806.63;5015105;28;20211;-84
2023/04/29 00:56:40;;;;;;;19.07;17.27;;;;;;;11.68;100.00;99815.66;5015298;28;20210;-84
2023/04/29 00:59:08;;;;;;;25.77;19.37;;;;;;;11.53;100.00;99817.00;5014749;28;20238;-84
2023/04/29 01:01:35;;;;;;;19.70;17.90;;;;;;;11.53;100.00;99810.03;5014708;28;20235;-83
2023/04/29 01:04:02;;;;;;;21.70;19.33;;;;;;;11.44;100.00;99810.31;5014722;28;20203;-85
2023/04/29 01:06:39;;;;;;;22.43;19.83;;;;;;;11.40;100.00;99807.88;5015282;28;20207;-84
2023/04/29 01:09:23;;;;;;;27.47;21.43;;;;;;;11.36;100.00;99821.91;5014805;28;20226;-83
2023/04/29 01:12:03;;;;;;;34.10;23.80;;;;;;;11.39;100.00;99825.28;5014513;28;20775;-84
2023/04/29 01:14:31;;;;;;;33.80;23.73;;;;;;;11.37;100.00;99834.09;5014848;28;20206;-84
2023/04/29 01:17:03;;;;;;;34.53;23.77;;;;;;;11.33;100.00;99833.31;5014050;28;20211;-84
2023/04/29 01:19:41;;;;;;;33.43;24.17;;;;;;;11.43;100.00;99832.13;5015539;28;20210;-83
2023/04/29 01:22:07;;;;;;;30.80;23.50;;;;;;;11.35;100.00;99831.50;5015809;28;20230;-84
2023/04/29 01:24:35;;;;;;;33.53;23.90;;;;;;;11.35;100.00;99836.75;5015936;28;20637;-84
2023/04/29 01:27:08;;;;;;;32.13;23.30;;;;;;;11.35;100.00;99835.91;5016001;28;20266;-84
2023/04/29 01:29:43;;;;;;;35.87;24.10;;;;;;;11.35;100.00;99831.50;5018743;28;20280;-84
2023/04/29 01:32:15;;;;;;;34.17;23.90;;;;;;;11.35;100.00;99841.97;5015073;28;20239;-84
2023/04/29 01:34:47;;;;;;;30.77;22.30;;;;;;;11.20;100.00;99848.53;5015632;28;20234;-84
2023/04/29 01:37:18;;;;;;;35.93;23.67;;;;;;;11.13;100.00;99837.41;5015009;28;20260;-84
2023/04/29 01:39:56;;;;;;;41.20;23.90;;;;;;;11.14;100.00;99830.47;5014748;28;20748;-83
2023/04/29 01:42:29;;;;;;;34.57;22.37;;;;;;;11.24;100.00;99831.03;5014879;28;20273;-84
2023/04/29 01:44:57;;;;;;;36.77;24.60;;;;;;;11.17;100.00;99834.72;5015426;28;20207;-84
2023/04/29 01:47:24;;;;;;;40.10;25.63;;;;;;;11.11;100.00;99836.59;5015188;28;20277;-84
2023/04/29 01:49:51;;;;;;;34.60;23.53;;;;;;;11.18;100.00;99836.41;5015298;28;20301;-84
2023/04/29 01:52:17;;;;;;;38.27;23.63;;;;;;;11.18;100.00;99849.47;5015165;28;20227;-83
2023/04/29 01:54:44;;;;;;;31.37;22.73;;;;;;;11.30;100.00;99851.72;5015070;28;20207;-85
2023/04/29 01:57:11;;;;;;;36.77;23.00;;;;;;;11.25;100.00;99854.47;5015448;28;20590;-84
2023/04/29 01:59:38;;;;;;;32.40;22.60;;;;;;;11.17;100.00;99851.25;5014812;28;20766;-84
2023/04/29 02:02:04;;;;;;;31.43;23.00;;;;;;;11.19;100.00;99853.81;5014788;28;20593;-84
2023/04/29 02:04:32;;;;;;;34.23;22.87;;;;;;;11.21;100.00;99859.84;5015458;28;20284;-85
2023/04/29 02:06:58;;;;;;;31.53;22.33;;;;;;;11.17;100.00;99859.06;5015361;28;20210;-83
2023/04/29 02:09:25;;;;;;;28.07;22.30;;;;;;;11.06;100.00;99867.25;5015208;28;20261;-85
2023/04/29 02:11:51;;;;;;;32.80;22.03;;;;;;;11.07;100.00;99866.34;5015235;28;20227;-84
2023/04/29 02:14:19;;;;;;;33.90;23.40;;;;;;;11.00;100.00;99880.50;5015127;28;20261;-84
2023/04/29 02:16:46;;;;;;;33.57;22.10;;;;;;;11.10;100.00;99876.72;5015538;28;20207;-83
2023/04/29 02:19:13;;;;;;;30.90;22.33;;;;;;;11.15;100.00;99873.94;5015212;28;20759;-84
2023/04/29 02:21:39;;;;;;;31.33;22.10;;;;;;;11.11;100.00;99881.00;5014694;28;20238;-84
2023/04/29 02:24:06;;;;;;;32.37;22.20;;;;;;;11.10;100.00;99886.31;5014537;28;20198;-84
2023/04/29 02:26:33;;;;;;;32.70;22.73;;;;;;;11.08;100.00;99886.34;5014893;28;20644;-84
2023/04/29 02:28:59;;;;;;;28.57;21.57;;;;;;;11.01;100.00;99897.88;5014340;28;20207;-83
2023/04/29 02:31:27;;;;;;;28.60;20.97;;;;;;;10.78;100.00;99879.41;5014644;28;20229;-84
2023/04/29 02:33:54;;;;;;;34.77;22.27;;;;;;;10.72;100.00;99868.25;5014802;28;20203;-84
2023/04/29 02:36:20;;;;;;;30.83;22.37;;;;;;;10.81;100.00;99861.03;5015506;28;20207;-86
2023/04/29 02:38:49;;;;;;;31.37;21.73;;;;;;;10.81;100.00;99868.88;5015265;28;20227;-85
2023/04/29 02:41:16;;;;;;;30.50;21.07;;;;;;;10.72;100.00;99867.38;5015006;28;20235;-85
2023/04/29 02:43:43;;;;;;;32.37;20.70;;;;;;;10.68;100.00;99870.97;5014816;28;20274;-84
2023/04/29 02:46:10;;;;;;;36.07;23.80;;;;;;;10.66;100.00;99871.03;5014855;28;20213;-84
2023/04/29 02:48:38;;;;;;;31.30;19.83;;;;;;;10.66;100.00;99864.94;5014537;28;20679;-86
2023/04/29 02:51:05;;;;;;;32.03;20.27;;;;;;;10.62;100.00;99874.59;5015050;28;20242;-84
2023/04/29 02:53:31;;;;;;;32.23;20.07;;;;;;;10.61;100.00;99866.84;5014698;28;20217;-84
2023/04/29 02:55:58;;;;;;;32.27;20.73;;;;;;;10.71;100.00;99865.69;5015533;28;20643;-83
2023/04/29 02:58:24;;;;;;;30.17;19.77;;;;;;;10.51;100.00;99871.47;5014747;28;20300;-85
2023/04/29 03:00:51;;;;;;;30.67;19.93;;;;;;;10.43;100.00;99869.06;5014709;28;20254;-84
2023/04/29 03:03:17;;;;;;;31.07;19.07;;;;;;;10.51;100.00;99868.84;5019092;28;20260;-85
2023/04/29 03:05:45;;;;;;;30.97;18.43;;;;;;;10.49;100.00;99878.47;5044280;28;20204;-83
2023/04/29 03:08:11;;;;;;;33.10;19.70;;;;;;;10.43;100.00;99887.31;5050672;28;20241;-84
2023/04/29 03:10:38;;;;;;;29.67;18.33;;;;;;;10.53;100.00;99886.16;5051823;28;20212;-82
2023/04/29 03:13:05;;;;;;;29.93;18.33;;;;;;;10.35;100.00;99894.50;5051032;28;20205;-83
2023/04/29 03:15:31;;;;;;;28.33;18.60;;;;;;;10.43;100.00;99891.69;5051834;28;20233;-83
2023/04/29 03:18:00;;;;;;;26.87;18.07;;;;;;;10.46;100.00;99902.88;5051872;28;20260;-83
2023/04/29 03:20:26;;;;;;;25.90;18.27;;;;;;;10.58;100.00;99903.44;5050387;28;20213;-83
2023/04/29 03:22:54;;;;;;;22.67;16.50;;;;;;;10.56;100.00;99916.53;5051228;28;20249;-82
2023/04/29 03:25:21;;;;;;;20.67;15.67;;;;;;;10.44;100.00;99917.72;5050917;28;20248;-83
2023/04/29 03:27:48;;;;;;;16.63;14.90;;;;;;;10.49;100.00;99920.22;5051629;28;20202;-83
2023/04/29 03:30:14;;;;;;;20.67;17.13;;;;;;;10.44;100.00;99919.47;5050800;28;20206;-83
2023/04/29 03:32:41;;;;;;;27.50;19.23;;;;;;;10.45;100.00;99923.81;5037337;28;20243;-82
2023/04/29 03:35:08;;;;;;;28.47;20.13;;;;;;;10.48;100.00;99927.19;5035332;28;20220;-83
2023/04/29 03:37:34;;;;;;;31.90;21.60;;;;;;;10.56;100.00;99928.75;5027409;28;20658;-86
2023/04/29 03:40:03;;;;;;;36.83;24.27;;;;;;;10.41;100.00;99927.41;5017806;28;20260;-86
2023/04/29 03:42:30;;;;;;;37.27;25.33;;;;;;;10.33;100.00;99925.84;5019585;28;20229;-86
2023/04/29 03:44:57;;;;;;;44.53;25.67;;;;;;;10.37;100.00;99926.63;5019818;28;20206;-86
2023/04/29 03:47:23;;;;;;;41.17;25.50;;;;;;;10.42;100.00;99935.16;5019698;28;20206;-86
2023/04/29 03:49:49;;;;;;;41.53;25.77;;;;;;;10.47;100.00;99938.53;5019319;28;20264;-86
2023/04/29 03:52:16;;;;;;;37.03;25.70;;;;;;;10.59;100.00;99955.63;5019874;28;20222;-86
2023/04/29 03:54:42;;;;;;;41.93;26.03;;;;;;;10.49;100.00;99952.38;5019274;28;20214;-86
2023/04/29 03:57:10;;;;;;;39.73;26.60;;;;;;;10.44;100.00;99953.41;5019375;28;20206;-86
2023/04/29 03:59:36;;;;;;;45.63;27.23;;;;;;;10.52;100.00;99961.88;5019039;28;20226;-85
2023/04/29 04:02:03;;;;;;;37.03;26.10;;;;;;;10.42;100.00;99966.47;5019078;28;20223;-84
2023/04/29 04:04:30;;;;;;;35.20;26.67;;;;;;;10.37;100.00;99976.19;5011184;28;20213;-86
2023/04/29 04:06:56;;;;;;;31.33;24.47;;;;;;;10.37;100.00;99980.56;5018393;28;20622;-86
2023/04/29 04:09:23;;;;;;;29.47;25.57;;;;;;;10.26;100.00;100005.13;5018389;28;20353;-87
2023/04/29 04:11:49;;;;;;;29.03;25.50;;;;;;;10.14;100.00;100010.63;5018397;28;20597;-86
2023/04/29 04:14:17;;;;;;;30.23;26.07;;;;;;;10.14;100.00;100003.66;5019498;28;20199;-85
2023/04/29 04:16:44;;;;;;;31.37;27.97;;;;;;;10.09;100.00;100017.72;5018929;28;20207;-86
2023/04/29 04:19:10;;;;;;;36.53;27.77;;;;;;;10.12;100.00;100017.63;5018977;28;20669;-86
2023/04/29 04:21:37;;;;;;;34.97;28.53;;;;;;;9.98;100.00;100025.78;5018996;28;20262;-86
2023/04/29 04:24:04;;;;;;;32.33;27.03;;;;;;;10.02;100.00;100027.44;5018656;28;20199;-87
2023/04/29 04:26:30;;;;;;;33.33;28.07;;;;;;;10.11;100.00;100029.84;5018107;28;20226;-85
2023/04/29 04:28:57;;;;;;;29.20;26.03;;;;;;;10.14;100.00;100037.56;5018355;28;20203;-87
2023/04/29 04:31:24;;;;;;;34.90;28.40;;;;;;;10.04;100.00;100045.66;5017961;28;20268;-86
2023/04/29 04:33:52;;;;;;;35.37;29.47;;;;;;;9.90;100.00;100040.75;5018350;28;20234;-86
2023/04/29 04:36:19;;;;;;;30.90;27.63;;;;;;;9.96;100.00;100038.00;5018186;28;20277;-86
2023/04/29 04:38:45;;;;;;;34.73;28.27;;;;;;;10.05;100.00;100047.34;5018200;28;20705;-86
2023/04/29 04:41:12;;;;;;;35.93;29.30;;;;;;;10.01;100.00;100053.53;5018650;28;20270;-86
2023/04/29 04:43:40;;;;;;;37.23;30.10;;;;;;;9.91;100.00;100052.88;5018775;28;20206;-86
2023/04/29 04:46:10;;;;;;;34.93;29.40;;;;;;;9.96;100.00;100052.78;5019232;28;20301;-86
2023/04/29 04:48:38;;;;;;;40.57;30.90;;;;;;;10.09;100.00;100064.66;5019250;28;20209;-86
2023/04/29 04:51:08;;;;;;;38.47;29.60;;;;;;;10.07;100.00;100063.84;5017944;28;20229;-86
2023/04/29 04:53:34;;;;;;;41.63;31.80;;;;;;;10.08;100.00;100071.63;5018252;28;20206;-86
2023/04/29 04:56:01;;;;;;;42.10;32.53;;;;;;;10.08;100.00;100073.38;5018822;28;20234;-87
2023/04/29 04:58:27;;;;;;;43.83;31.50;;;;;;;10.02;100.00;100076.13;5018585;28;20218;-86
2023/04/29 05:00:54;;;;;;;50.70;34.80;;;;;;;9.99;100.00;100076.19;5018136;28;20233;-86
2023/04/29 05:03:20;;;;;;;49.77;34.53;;;;;;;10.07;100.00;100090.78;5017662;28;20256;-84
2023/04/29 05:05:53;;;;;;;52.27;35.00;;;;;;;9.97;100.00;100099.69;5016028;28;20697;-84
2023/04/29 05:08:19;;;;;;;50.97;34.03;;;;;;;9.90;100.00;100098.97;5015905;28;20305;-84
2023/04/29 05:10:46;;;;;;;57.43;35.87;;;;;;;9.85;100.00;100102.56;5015721;28;20294;-84
2023/04/29 05:13:12;;;;;;;58.97;35.73;;;;;;;9.71;100.00;100105.44;5015576;28;20215;-85
2023/04/29 05:15:38;;;;;;;59.90;36.17;;;;;;;9.81;100.00;100093.97;5014824;28;20624;-83
2023/04/29 05:18:05;;;;;;;60.57;37.03;;;;;;;9.82;100.00;100100.88;5014735;28;20213;-83
2023/04/29 05:20:31;;;;;;;68.60;39.37;;;;;;;9.73;100.00;100099.34;5014684;28;20645;-84
2023/04/29 05:22:59;;;;;;;67.57;39.70;;;;;;;9.82;100.00;100097.41;5015481;28;20231;-84
2023/04/29 05:25:26;;;;;;;62.90;37.70;;;;;;;9.79;100.00;100100.97;5017536;28;20214;-85
2023/04/29 05:27:52;;;;;;;67.87;39.10;;;;;;;9.83;100.00;100113.03;5017844;28;20271;-85
2023/04/29 05:30:18;;;;;;;61.60;37.30;;;;;;;9.76;100.00;100119.25;5017593;28;20215;-87
2023/04/29 05:32:45;;;;;;;68.70;39.83;;;;;;;9.75;100.00;100117.53;5010692;28;20669;-86
2023/04/29 05:35:12;;;;;;;64.83;37.70;;;;;;;9.74;100.00;100121.88;5017537;28;20236;-85
2023/04/29 05:37:38;;;;;;;69.83;39.33;;;;;;;9.81;100.00;100124.34;5017618;28;20214;-84
2023/04/29 05:40:08;;;;;;;68.77;40.00;;;;;;;9.86;100.00;100120.78;5017449;28;20708;-85
2023/04/29 05:42:34;;;;;;;70.17;41.87;;;;;;;9.81;100.00;100132.19;5017494;28;20230;-86
2023/04/29 05:45:01;;;;;;;75.47;42.13;;;;;;;9.83;100.00;100143.44;5017623;28;20664;-84
2023/04/29 05:47:27;;;;;;;76.03;43.47;;;;;;;9.76;100.00;100144.47;5017236;28;20209;-85
2023/04/29 05:49:53;;;;;;;83.67;44.40;;;;;;;9.70;100.00;100143.69;5017217;28;20272;-85
2023/04/29 05:52:20;;;;;;;71.03;41.83;;;;;;;9.78;100.00;100148.75;5015691;28;20226;-84
2023/04/29 05:54:47;;;;;;;86.63;44.63;;;;;;;9.77;100.00;100140.97;5014847;28;20217;-84
2023/04/29 05:57:14;;;;;;;81.60;44.77;;;;;;;9.77;100.00;100143.56;5014963;28;20215;-83
2023/04/29 05:59:41;;;;;;;80.13;44.43;;;;;;;9.78;100.00;100153.13;5016806;28;20230;-84
2023/04/29 06:02:07;;;;;;;74.50;43.57;;;;;;;9.74;100.00;100160.97;5017213;28;20629;-84
2023/04/29 06:04:34;;;;;;;79.33;42.17;;;;;;;9.65;100.00;100166.41;5017886;28;20596;-86
2023/04/29 06:07:00;;;;;;;69.13;41.37;;;;;;;9.54;100.00;100170.94;5017564;28;20213;-83
2023/04/29 06:09:26;;;;;;;70.93;42.33;;;;;;;9.60;100.00;100180.41;5018041;28;20215;-83
2023/04/29 06:11:53;;;;;;;76.17;42.43;;;;;;;9.60;100.00;100181.25;5017843;28;20226;-85
2023/04/29 06:14:21;;;;;;;82.50;47.17;;;;;;;9.52;100.00;100170.13;5017431;28;20211;-85
2023/04/29 06:16:48;;;;;;;87.70;47.10;;;;;;;9.62;100.00;100176.88;5016773;28;20581;-84
2023/04/29 06:19:14;;;;;;;81.27;48.23;;;;;;;9.62;100.00;100181.22;5017974;28;20778;-84
2023/04/29 06:21:41;;;;;;;74.43;44.03;;;;;;;9.57;100.00;100186.50;5016838;28;20632;-83
2023/04/29 06:24:07;;;;;;;69.57;43.67;;;;;;;9.66;100.00;100201.13;5017119;28;20666;-84
2023/04/29 06:26:34;;;;;;;67.37;42.47;;;;;;;9.55;100.00;100206.53;5017078;28;20273;-83
2023/04/29 06:29:00;;;;;;;65.53;38.60;;;;;;;9.47;100.00;100218.84;5016565;28;20288;-83
2023/04/29 06:31:28;;;;;;;59.13;37.50;;;;;;;9.50;100.00;100224.84;5039405;23;20275;-78
2023/04/29 06:33:54;;;;;;;56.20;36.10;;;;;;;9.46;100.00;100222.34;4991683;28;20249;-78
2023/04/29 06:36:21;;;;;;;55.17;35.63;;;;;;;9.44;100.00;100222.38;4995885;28;20207;-78
2023/04/29 06:38:47;;;;;;;53.13;36.77;;;;;;;9.38;100.00;100221.63;4996170;28;20276;-78
2023/04/29 06:41:13;;;;;;;52.43;35.07;;;;;;;9.43;100.00;100225.00;4995908;28;20215;-78
2023/04/29 06:43:41;;;;;;;49.03;35.93;;;;;;;9.47;100.00;100245.75;4976845;28;20232;-78
2023/04/29 06:46:08;;;;;;;52.33;35.60;;;;;;;9.39;100.00;100247.63;4976254;28;20234;-78
2023/04/29 06:48:36;;;;;;;53.27;34.43;;;;;;;9.46;100.00;100253.59;4976461;28;20218;-78
2023/04/29 06:51:02;;;;;;;54.33;34.37;;;;;;;9.31;100.00;100262.53;4976150;28;20556;-78
2023/04/29 06:53:29;;;;;;;60.17;35.33;;;;;;;9.34;100.00;100257.28;4976039;28;20243;-78
2023/04/29 06:55:55;;;;;;;54.63;33.93;;;;;;;9.23;100.00;100261.78;4976247;28;20225;-78
2023/04/29 06:58:21;;;;;;;52.93;33.83;;;;;;;9.31;100.00;100265.13;4976288;28;20210;-78
2023/04/29 07:00:50;;;;;;;47.23;33.33;;;;;;;9.36;100.00;100275.50;4975525;28;20721;-78
2023/04/29 07:03:17;;;;;;;50.20;34.33;;;;;;;9.48;100.00;100268.31;4976415;28;20296;-78
2023/04/29 07:05:45;;;;;;;48.43;33.60;;;;;;;9.46;100.00;100287.47;4990927;28;20659;-78
2023/04/29 07:08:12;;;;;;;51.80;33.80;;;;;;;9.51;100.00;100294.34;4975540;28;20215;-79
2023/04/29 07:10:39;;;;;;;51.87;33.37;;;;;;;9.39;100.00;100302.31;4975290;28;20200;-76
2023/04/29 07:13:05;;;;;;;45.40;31.47;;;;;;;9.34;100.00;100304.16;4973213;28;20231;-76
2023/04/29 07:15:34;;;;;;;49.47;33.87;;;;;;;9.25;100.00;100312.13;4972670;28;20206;-76
2023/04/29 07:18:00;;;;;;;47.23;32.93;;;;;;;9.26;100.00;100316.47;4974672;28;20212;-78
2023/04/29 07:20:27;;;;;;;51.53;33.13;;;;;;;9.38;100.00;100324.06;4975964;28;20228;-78
2023/04/29 07:22:55;;;;;;;45.13;31.70;;;;;;;9.47;100.00;100330.88;4975857;28;20313;-78
2023/04/29 07:25:21;;;;;;;45.07;31.63;;;;;;;9.53;100.00;100346.41;4976354;28;20209;-78
2023/04/29 07:27:48;;;;;;;38.77;31.77;;;;;;;9.50;100.00;100352.53;4976403;28;20662;-78
2023/04/29 07:30:14;;;;;;;47.47;31.17;;;;;;;9.51;100.00;100361.19;4976133;28;20640;-78
2023/04/29 07:32:40;;;;;;;42.53;30.50;;;;;;;9.54;100.00;100367.22;4975598;28;20246;-78
2023/04/29 07:35:07;;;;;;;42.53;31.23;;;;;;;9.51;100.00;100372.50;4989938;28;20210;-78
2023/04/29 07:37:34;;;;;;;45.57;32.43;;;;;;;9.52;100.00;100374.22;4995759;28;20246;-78
2023/04/29 07:40:01;;;;;;;37.60;28.70;;;;;;;9.60;100.00;100375.84;4994468;28;20223;-78
2023/04/29 07:42:28;;;;;;;35.40;29.10;;;;;;;9.66;100.00;100380.97;4966043;28;20294;-76
2023/04/29 07:44:54;;;;;;;41.47;31.43;;;;;;;9.69;100.00;100384.38;4962942;28;20207;-76
2023/04/29 07:47:24;;;;;;;36.57;28.47;;;;;;;9.81;100.00;100390.25;4963659;28;20266;-76
2023/04/29 07:49:51;;;;;;;37.37;28.10;;;;;;;10.00;100.00;100402.09;4961616;28;20625;-76
2023/04/29 07:52:17;;;;;;;32.13;27.50;;;;;;;10.00;100.00;100422.09;4961863;28;20714;-76
2023/04/29 07:54:44;;;;;;;28.97;25.80;;;;;;;10.16;100.00;100436.59;4953717;28;20209;-76
2023/04/29 07:57:11;;;;;;;28.40;25.47;;;;;;;10.32;100.00;100445.06;4953841;29;20217;-76
2023/04/29 07:59:38;;;;;;;27.07;23.63;;;;;;;10.33;100.00;100476.34;4953915;28;20229;-77
2023/04/29 08:02:04;;;;;;;28.03;24.90;;;;;;;10.46;100.00;100476.13;4955192;29;20253;-77
2023/04/29 08:04:30;;;;;;;27.60;24.70;;;;;;;10.62;100.00;100482.78;4967465;28;20216;-78
2023/04/29 08:06:57;;;;;;;28.33;25.40;;;;;;;10.58;100.00;100511.56;4972184;28;20204;-78
2023/04/29 08:09:23;;;;;;;27.33;24.13;;;;;;;10.58;100.00;100522.03;4971886;28;20220;-78
2023/04/29 08:11:50;;;;;;;26.07;23.43;;;;;;;10.57;100.00;100529.00;4971552;28;20289;-78
2023/04/29 08:14:17;;;;;;;24.83;22.73;;;;;;;10.56;100.00;100555.97;4972161;28;20611;-78
2023/04/29 08:16:44;;;;;;;24.17;22.13;;;;;;;10.64;100.00;100563.69;4972191;28;20259;-77
2023/04/29 08:19:10;;;;;;;22.33;20.53;;;;;;;10.82;100.00;100565.09;4971509;28;20212;-78
2023/04/29 08:21:36;;;;;;;21.50;19.50;;;;;;;10.74;100.00;100593.94;4970813;28;20625;-77
2023/04/29 08:24:04;;;;;;;21.90;20.10;;;;;;;10.85;100.00;100601.63;4970313;28;20210;-79
2023/04/29 08:26:31;;;;;;;20.67;18.67;;;;;;;11.02;100.00;100616.97;4972307;28;20211;-79
2023/04/29 08:28:57;;;;;;;19.17;17.77;;;;;;;11.11;100.00;100624.66;4975763;28;20214;-79
2023/04/29 08:31:24;;;;;;;20.60;18.80;;;;;;;11.00;99.73;100663.16;4974762;28;20257;-80
2023/04/29 08:33:51;;;;;;;19.90;18.30;;;;;;;11.31;100.00;100660.88;4975199;28;20529;-80
2023/04/29 08:36:17;;;;;;;19.50;17.50;;;;;;;11.49;98.17;100689.28;4974882;28;20215;-79
2023/04/29 08:38:44;;;;;;;20.17;18.50;;;;;;;11.68;98.76;100709.84;4976834;28;20207;-80
2023/04/29 08:41:10;;;;;;;17.13;15.80;;;;;;;11.79;93.99;100751.47;4975987;28;20232;-79
2023/04/29 08:43:39;;;;;;;16.90;15.43;;;;;;;12.02;93.58;100775.47;4975964;28;20721;-79
2023/04/29 08:46:06;;;;;;;17.67;16.37;;;;;;;12.22;92.96;100793.41;4975625;28;20282;-79
2023/04/29 08:48:34;;;;;;;16.63;15.43;;;;;;;12.17;90.74;100837.13;4975468;28;20278;-79
2023/04/29 08:51:01;;;;;;;15.73;14.50;;;;;;;11.99;89.85;100864.50;4974309;28;20210;-79
2023/04/29 08:53:28;;;;;;;16.17;14.77;;;;;;;11.79;89.19;100870.03;4975488;28;20255;-80
2023/04/29 08:55:55;;;;;;;15.57;14.20;;;;;;;11.93;89.62;100880.28;4974874;28;20204;-79
2023/04/29 08:58:22;;;;;;;16.83;15.53;;;;;;;12.07;90.08;100880.03;4974872;28;20210;-80
2023/04/29 09:00:49;;;;;;;14.80;13.43;;;;;;;12.01;88.84;100886.28;4974740;28;20227;-80
2023/04/29 09:03:19;;;;;;;14.73;13.23;;;;;;;12.05;87.49;100927.19;4975752;28;20314;-79
2023/04/29 09:05:55;;;;;;;12.73;11.73;;;;;;;12.01;85.95;100961.28;4975072;28;20215;-79
2023/04/29 09:08:22;;;;;;;13.20;12.17;;;;;;;12.01;85.47;100982.19;4976454;28;20266;-79
2023/04/29 09:10:49;;;;;;;12.50;11.60;;;;;;;12.07;84.37;100989.94;4976344;28;20653;-80
2023/04/29 09:13:26;;;;;;;13.03;12.03;;;;;;;12.19;85.19;100997.63;4976053;28;20261;-80
2023/04/29 09:15:53;;;;;;;18.73;13.73;;;;;;;12.48;87.62;100960.44;4976031;28;20211;-78
2023/04/29 09:18:41;;;;;;;14.13;13.13;;;;;;;12.63;85.83;100977.63;4975369;28;20214;-79
2023/04/29 09:21:15;;;;;;;12.40;11.30;;;;;;;12.37;83.34;101021.72;4974122;28;20304;-79
2023/04/29 09:23:42;;;;;;;12.23;11.17;;;;;;;12.37;82.84;101047.91;4975395;28;20318;-78
2023/04/29 09:26:08;;;;;;;12.13;11.23;;;;;;;12.24;81.92;101065.59;4975269;28;20233;-78
2023/04/29 09:28:34;;;;;;;12.37;11.37;;;;;;;12.23;81.83;101072.59;4976107;28;20215;-78
2023/04/29 09:31:04;;;;;;;12.20;11.40;;;;;;;12.17;82.47;101075.31;4975985;28;20282;-78
2023/04/29 09:33:31;;;;;;;11.67;10.77;;;;;;;12.20;81.88;101083.09;4289141;28;10000741;-78
2023/04/29 09:35:58;;;;;;;11.97;11.13;;;;;;;12.25;83.15;101051.59;4974198;28;20210;-78
2023/04/29 09:38:26;;;;;;;13.03;11.67;;;;;;;12.20;81.82;101066.53;4972840;28;20216;-79
2023/04/29 09:40:52;;;;;;;11.97;11.17;;;;;;;12.22;81.87;101083.06;4978501;28;20304;-79
2023/04/29 09:43:20;;;;;;;11.87;10.73;;;;;;;12.20;81.58;101087.47;4984979;28;20227;-79
2023/04/29 09:45:48;;;;;;;10.83;9.93;;;;;;;12.48;80.98;101090.50;4976105;28;20211;-79
2023/04/29 09:48:16;;;;;;;10.90;10.10;;;;;;;12.62;78.84;101111.22;4975901;28;20211;-78
2023/04/29 09:50:43;;;;;;;10.43;9.53;;;;;;;12.57;77.62;101160.22;4975288;28;20299;-78
2023/04/29 09:53:11;;;;;;;11.70;10.80;;;;;;;12.44;77.65;101164.75;4976005;28;20285;-78
2023/04/29 09:55:59;;;;;;;11.13;10.23;;;;;;;12.56;78.71;101159.34;4975846;28;20219;-79
2023/04/29 09:58:28;;;;;;;10.43;9.63;;;;;;;12.65;78.36;101160.97;4971104;28;20211;-79
2023/04/29 10:00:56;;;;;;;10.97;10.00;;;;;;;12.87;78.34;101140.50;4975145;28;20642;-79
2023/04/29 10:03:22;;;;;;;10.43;9.63;;;;;;;12.91;76.03;101173.63;4976332;28;20232;-79
2023/04/29 10:05:49;;;;;;;9.47;8.77;;;;;;;12.99;75.05;101225.91;4994616;28;20204;-79
2023/04/29 10:08:15;;;;;;;10.33;9.53;;;;;;;12.77;74.48;101236.72;4995280;28;20212;-79
2023/04/29 10:10:45;;;;;;;10.57;9.77;;;;;;;12.98;76.41;101234.66;4995126;28;20205;-79
2023/04/29 10:13:11;;;;;;;10.80;9.90;;;;;;;13.11;77.03;101207.34;4994386;28;20227;-78
2023/04/29 10:15:43;;;;;;;10.33;9.53;;;;;;;13.13;74.59;101220.44;4994001;28;20241;-76
2023/04/29 10:18:18;;;;;;;10.63;9.87;;;;;;;13.02;74.49;101237.22;4990225;28;20215;-76
2023/04/29 10:20:46;;;;;;;11.43;10.63;;;;;;;13.02;76.16;101221.50;4990092;28;20263;-76
2023/04/29 10:23:14;;;;;;;11.00;10.07;;;;;;;12.89;75.42;101215.56;4990272;28;20242;-76
2023/04/29 10:25:44;;;;;;;10.77;9.97;;;;;;;12.83;75.65;101220.06;4990458;28;20219;-76
2023/04/29 10:28:13;;;;;;;11.33;10.30;;;;;;;12.64;76.90;101204.59;4991014;28;20254;-78
2023/04/29 10:30:41;;;;;;;11.67;10.60;;;;;;;12.73;78.65;101145.13;4994678;28;20211;-79
2023/04/29 10:33:10;;;;;;;12.67;11.53;;;;;;;12.82;79.92;101089.94;4992518;28;20295;-78
2023/04/29 10:35:37;;;;;;;11.30;10.37;;;;;;;12.95;78.66;101082.72;5002544;28;20195;-78
2023/04/29 10:38:11;;;;;;;12.67;11.73;;;;;;;12.83;78.74;101100.38;4997361;28;20211;-79
2023/04/29 10:40:45;;;;;;;12.13;11.23;;;;;;;12.83;77.03;101126.59;4993482;28;20227;-78
2023/04/29 10:43:12;;;;;;;11.40;10.60;;;;;;;12.89;75.29;101160.53;4996185;28;20276;-79
2023/04/29 10:45:39;;;;;;;11.47;10.63;;;;;;;12.95;76.64;101179.69;5002649;28;20234;-79
2023/04/29 10:48:14;;;;;;;10.90;10.10;;;;;;;13.02;75.66;101176.06;5013539;28;20207;-78
2023/04/29 10:51:00;;;;;;;11.83;10.97;;;;;;;12.77;75.88;101188.72;5012270;28;20203;-78
2023/04/29 10:53:28;;;;;;;11.40;10.50;;;;;;;12.80;74.92;101184.25;5013282;28;20239;-78
2023/04/29 10:55:58;;;;;;;11.77;10.73;;;;;;;12.80;75.33;101200.00;5011854;28;20231;-78
2023/04/29 10:58:48;;;;;;;11.07;10.27;;;;;;;12.63;74.12;101230.84;5010671;28;20234;-78
2023/04/29 11:01:16;;;;;;;12.43;11.53;;;;;;;12.77;75.36;101213.16;4998499;28;20415;-78
2023/04/29 11:03:47;;;;;;;12.27;11.27;;;;;;;12.73;74.90;101229.81;4996208;28;20216;-79
2023/04/29 11:06:14;;;;;;;11.00;10.10;;;;;;;12.77;75.14;101210.53;4995623;28;20219;-79
2023/04/29 11:08:42;;;;;;;11.27;10.47;;;;;;;12.83;73.09;101230.53;4994445;28;20226;-79
2023/04/29 11:11:13;;;;;;;11.23;10.13;;;;;;;12.80;71.63;101267.25;4994807;28;20229;-79